Time;durP1;ratioP1;P1;durP2;ratioP2;P2;SDS_P1;SDS_P2;PMS_P1;PMS_P2;Temp;Humidity;BMP_temperature;BMP_pressure;BME280_temperature;BME280_humidity;BME280_pressure;Samples;Min_cycle;Max_cycle;Signal;HPM_P1;HPM_P2
2022/06/15 00:00:00;;;;;;;9.20;3.40;;;17.80;75.60;;;16.91;58.43;97428.63;5090215;28;20497;-76
2022/06/15 00:02:26;;;;;;;4.70;3.08;;;17.80;75.50;;;16.84;58.69;97422.84;5090583;28;20439;-76
2022/06/15 00:04:54;;;;;;;7.50;3.60;;;17.70;75.80;;;16.83;58.82;97423.94;5090429;28;20418;-76
2022/06/15 00:07:19;;;;;;;6.70;3.40;;;17.70;76.20;;;16.80;59.10;97423.72;5090657;28;20879;-76
2022/06/15 00:09:45;;;;;;;5.05;2.90;;;17.70;76.40;;;16.73;59.57;97420.63;5088756;28;20421;-76
2022/06/15 00:12:11;;;;;;;5.93;3.63;;;17.60;77.10;;;16.71;59.22;97420.09;5090422;28;20430;-76
2022/06/15 00:14:37;;;;;;;5.85;3.83;;;17.60;76.90;;;16.68;59.49;97416.16;5090616;28;20584;-76
2022/06/15 00:17:04;;;;;;;6.97;3.72;;;17.60;77.00;;;16.62;60.16;97419.94;5091621;28;20394;-76
2022/06/15 00:19:30;;;;;;;5.40;3.40;;;17.50;77.90;;;16.58;59.73;97416.25;5089725;28;20741;-76
2022/06/15 00:21:57;;;;;;;5.13;3.57;;;17.50;77.80;;;16.58;59.38;97417.03;5105948;28;20413;-76
2022/06/15 00:24:23;;;;;;;6.18;3.40;;;17.50;77.40;;;16.51;59.62;97416.59;5090245;28;20467;-77
2022/06/15 00:26:50;;;;;;;5.35;3.30;;;17.40;77.80;;;16.45;59.94;97420.44;5090157;28;20832;-76
2022/06/15 00:29:16;;;;;;;5.57;3.35;;;17.30;78.20;;;16.40;61.23;97419.69;5089739;28;20434;-77
2022/06/15 00:31:42;;;;;;;5.20;3.13;;;17.30;80.30;;;16.35;61.58;97420.56;5090280;28;20398;-76
2022/06/15 00:34:08;;;;;;;5.10;3.70;;;17.30;80.80;;;16.34;61.38;97423.50;5090380;28;21100;-76
2022/06/15 00:36:34;;;;;;;9.88;3.47;;;17.30;80.20;;;16.32;61.04;97417.66;5090251;28;20410;-76
2022/06/15 00:39:03;;;;;;;5.18;3.10;;;17.20;80.30;;;16.26;61.27;97424.94;5088404;28;20830;-76
2022/06/15 00:41:32;;;;;;;6.57;3.65;;;17.20;80.70;;;16.25;60.92;97418.00;5090057;28;20896;-76
2022/06/15 00:44:36;;;;;;;6.05;3.35;;;17.20;80.30;;;16.20;61.50;97413.53;5090247;28;20398;-76
2022/06/15 00:47:11;;;;;;;7.47;3.05;;;17.20;80.70;;;16.14;61.37;97404.00;5090468;28;20508;-77
2022/06/15 00:49:43;;;;;;;5.45;3.38;;;17.10;81.10;;;16.09;61.77;97411.25;5089610;28;20402;-76
2022/06/15 00:52:15;;;;;;;5.13;3.13;;;17.00;81.50;;;16.03;61.45;97399.84;5089906;28;20394;-76
2022/06/15 00:54:44;;;;;;;5.97;3.55;;;17.00;81.70;;;16.00;61.54;97402.31;5089956;28;20394;-76
2022/06/15 00:57:11;;;;;;;4.65;3.25;;;16.90;81.50;;;15.98;61.64;97391.13;5090338;28;20390;-77
2022/06/15 00:59:48;;;;;;;6.40;3.72;;;16.90;81.70;;;15.95;61.92;97391.66;5089323;28;20741;-77
2022/06/15 01:02:14;;;;;;;5.68;3.25;;;16.90;82.10;;;15.95;61.84;97389.00;5089791;28;20931;-77
2022/06/15 01:04:47;;;;;;;5.72;3.58;;;16.90;82.20;;;15.91;61.78;97380.78;5089893;28;20410;-76
2022/06/15 01:07:43;;;;;;;6.03;3.43;;;16.80;82.50;;;15.91;62.06;97378.13;5090036;28;20947;-76
2022/06/15 01:10:20;;;;;;;5.75;3.25;;;16.90;82.60;;;15.90;62.04;97376.53;5044466;28;20402;-76
2022/06/15 01:13:01;;;;;;;5.65;3.60;;;16.80;82.80;;;15.86;62.30;97375.50;5090113;28;20485;-76
2022/06/15 01:15:40;;;;;;;6.78;3.47;;;16.80;83.30;;;15.82;62.72;97371.81;5089775;28;20394;-76
2022/06/15 01:18:21;;;;;;;6.43;3.85;;;16.70;83.70;;;15.82;62.32;97366.47;5090537;28;20501;-76
2022/06/15 01:21:03;;;;;;;6.60;3.40;;;16.80;83.60;;;15.77;62.70;97367.34;5089742;28;20394;-76
2022/06/15 01:24:22;;;;;;;5.72;3.90;;;16.70;83.90;;;15.75;62.55;97371.34;5090002;28;20537;-76
2022/06/15 01:27:41;;;;;;;4.65;3.35;;;16.70;84.00;;;15.70;62.42;97369.56;5090080;28;20389;-76
2022/06/15 01:30:27;;;;;;;5.68;3.72;;;16.60;84.20;;;15.67;63.45;97364.75;5088712;28;20402;-76
2022/06/15 01:33:16;;;;;;;5.93;3.85;;;16.60;85.50;;;15.63;63.70;97370.97;5089984;28;20397;-76
2022/06/15 01:35:54;;;;;;;5.78;3.40;;;16.60;85.90;;;15.56;63.58;97365.19;5089673;28;20386;-76
2022/06/15 01:38:38;;;;;;;5.45;3.63;;;16.50;86.40;;;15.52;63.84;97358.78;5089097;28;20397;-76
2022/06/15 01:41:13;;;;;;;7.88;3.97;;;16.40;86.80;;;15.46;64.21;97358.81;5089397;28;20429;-77
2022/06/15 01:43:46;;;;;;;6.03;3.83;;;16.40;87.90;;;15.45;64.94;97353.78;5089779;28;20394;-76
2022/06/15 01:46:14;;;;;;;5.22;3.97;;;16.30;88.90;;;15.44;64.49;97368.19;5089539;28;20418;-76
2022/06/15 01:48:41;;;;;;;6.18;3.90;;;16.40;88.60;;;15.40;65.00;97375.97;5088822;28;20436;-76
2022/06/15 01:51:13;;;;;;;6.28;3.60;;;16.30;89.80;;;15.38;65.40;97374.66;5089343;28;20398;-76
2022/06/15 01:53:45;;;;;;;6.10;3.83;;;16.30;90.30;;;15.35;65.75;97377.88;5089710;28;20418;-76
2022/06/15 01:56:19;;;;;;;5.50;3.78;;;16.20;90.60;;;15.32;66.61;97363.25;5104954;28;20755;-76
2022/06/15 01:58:53;;;;;;;6.68;3.70;;;16.20;91.70;;;15.30;66.91;97365.38;5088957;28;20390;-76
2022/06/15 02:01:30;;;;;;;7.35;3.78;;;16.20;91.80;;;15.29;66.00;97371.78;5089473;28;20497;-76
2022/06/15 02:04:06;;;;;;;8.35;4.03;;;16.20;91.20;;;15.29;65.12;97365.66;5089226;28;20398;-76
2022/06/15 02:06:45;;;;;;;7.10;3.67;;;16.20;90.50;;;15.25;64.83;97365.44;5090681;28;20390;-76
2022/06/15 02:09:22;;;;;;;7.72;3.88;;;16.20;90.60;;;15.22;65.01;97366.00;5092415;28;20409;-76
2022/06/15 02:11:48;;;;;;;8.07;4.15;;;16.10;90.40;;;15.21;65.12;97363.59;5092882;28;20751;-76
2022/06/15 02:14:19;;;;;;;5.18;3.85;;;16.10;90.70;;;15.17;65.34;97367.91;5092753;28;20398;-76
2022/06/15 02:16:52;;;;;;;5.10;3.40;;;16.10;91.20;;;15.16;64.88;97369.00;5092631;28;20409;-76
2022/06/15 02:19:30;;;;;;;4.95;3.63;;;16.10;90.60;;;15.13;65.36;97366.88;5093357;28;20402;-76
2022/06/15 02:22:00;;;;;;;3.97;3.20;;;16.10;90.90;;;15.10;65.76;97369.06;5092566;28;20401;-76
2022/06/15 02:24:26;;;;;;;5.78;4.05;;;16.00;91.40;;;15.09;66.28;97372.78;5092595;28;20417;-75
2022/06/15 02:26:52;;;;;;;7.53;4.05;;;16.00;91.90;;;15.06;66.09;97370.66;5092295;28;20859;-76
2022/06/15 02:29:22;;;;;;;5.93;3.78;;;16.00;91.80;;;15.05;65.58;97366.41;5092094;28;20955;-76
2022/06/15 02:31:53;;;;;;;5.68;3.95;;;16.00;91.30;;;15.05;64.66;97365.59;5092363;28;20390;-76
2022/06/15 02:34:19;;;;;;;5.20;3.40;;;16.00;90.70;;;15.00;65.21;97371.78;5092448;28;20959;-76
2022/06/15 02:36:45;;;;;;;7.90;3.78;;;16.00;91.00;;;14.95;65.74;97366.50;5092514;28;20405;-76
2022/06/15 02:39:12;;;;;;;6.25;3.90;;;15.90;91.40;;;14.90;65.86;97363.06;5091741;28;20406;-76
2022/06/15 02:41:37;;;;;;;4.85;3.60;;;15.80;91.60;;;14.86;65.83;97364.72;5092118;28;20407;-76
2022/06/15 02:44:06;;;;;;;6.30;3.55;;;15.80;91.50;;;14.82;65.87;97358.34;5092388;28;20410;-76
2022/06/15 02:46:37;;;;;;;5.60;3.50;;;15.80;91.50;;;14.81;65.78;97348.78;5091905;28;20477;-75
2022/06/15 02:49:05;;;;;;;6.15;3.75;;;15.70;91.50;;;14.73;66.26;97352.81;5091671;28;20409;-76
2022/06/15 02:51:38;;;;;;;4.65;3.60;;;15.70;92.10;;;14.69;66.17;97352.56;5091886;28;20394;-75
2022/06/15 02:54:10;;;;;;;5.10;3.50;;;15.60;92.10;;;14.67;66.40;97356.56;5091996;28;20395;-75
2022/06/15 02:56:37;;;;;;;5.57;3.50;;;15.60;92.30;;;14.64;66.13;97355.28;5091946;28;20421;-75
2022/06/15 02:59:06;;;;;;;5.50;4.30;;;15.60;92.30;;;14.66;65.74;97362.97;5091504;28;20813;-75
2022/06/15 03:01:34;;;;;;;6.75;4.20;;;15.60;91.80;;;14.58;66.30;97360.94;5091849;28;20398;-75
2022/06/15 03:04:00;;;;;;;5.87;3.63;;;15.50;92.20;;;14.55;66.55;97362.28;5091921;28;20924;-75
2022/06/15 03:06:27;;;;;;;5.82;3.85;;;15.50;92.50;;;14.51;66.79;97355.13;5096259;28;20416;-76
2022/06/15 03:08:54;;;;;;;6.50;3.80;;;15.50;92.80;;;14.48;67.37;97358.31;5092498;28;20878;-75
2022/06/15 03:11:23;;;;;;;4.75;3.60;;;15.40;93.40;;;14.45;66.94;97353.53;5091853;28;20420;-76
2022/06/15 03:13:49;;;;;;;6.88;3.72;;;15.40;93.40;;;14.42;67.32;97354.91;5107435;28;20771;-76
2022/06/15 03:16:15;;;;;;;4.45;3.33;;;15.40;93.40;;;14.40;67.58;97359.69;5091385;28;20918;-75
2022/06/15 03:18:41;;;;;;;6.70;3.50;;;15.40;93.80;;;14.39;67.71;97357.31;5091004;28;20433;-76
2022/06/15 03:21:07;;;;;;;6.10;3.70;;;15.30;94.10;;;14.37;68.18;97348.75;5092496;28;20459;-75
2022/06/15 03:23:34;;;;;;;6.22;3.97;;;15.30;94.60;;;14.36;67.87;97349.84;5091502;28;20398;-76
2022/06/15 03:26:03;;;;;;;7.20;3.85;;;15.30;94.40;;;14.36;68.50;97347.19;5091319;28;20396;-76
2022/06/15 03:28:29;;;;;;;5.85;3.72;;;15.30;94.90;;;14.34;67.92;97350.13;5090841;28;20398;-75
2022/06/15 03:30:55;;;;;;;5.80;3.60;;;15.30;94.60;;;14.30;68.53;97349.88;5091133;28;20398;-76
2022/06/15 03:33:21;;;;;;;4.80;3.60;;;15.20;95.30;;;14.28;68.19;97357.31;5091073;28;20468;-76
2022/06/15 03:35:48;;;;;;;5.47;3.55;;;15.30;95.00;;;14.26;68.71;97348.84;5090921;28;20406;-76
2022/06/15 03:38:15;;;;;;;6.22;4.22;;;15.20;95.60;;;14.24;69.26;97350.19;5090649;28;20398;-75
2022/06/15 03:40:46;;;;;;;6.53;3.83;;;15.20;96.30;;;14.22;69.58;97350.44;5090843;28;20394;-76
2022/06/15 03:43:12;;;;;;;5.25;3.97;;;15.20;97.00;;;14.24;69.77;97347.50;5091095;28;20405;-75
2022/06/15 03:45:39;;;;;;;5.57;3.75;;;15.20;97.30;;;14.33;68.17;97349.31;5090898;28;20386;-76
2022/06/15 03:48:06;;;;;;;5.55;3.90;;;15.30;95.90;;;14.30;69.41;97352.53;5090546;28;20405;-76
2022/06/15 03:50:34;;;;;;;6.10;3.92;;;15.20;97.00;;;14.32;69.32;97347.72;5090609;28;20398;-76
2022/06/15 03:53:01;;;;;;;7.15;3.72;;;15.20;97.10;;;14.34;69.57;97350.91;5090904;28;20402;-75
2022/06/15 03:55:29;;;;;;;7.07;4.10;;;15.30;97.40;;;14.37;69.59;97354.09;5090854;28;20761;-75
2022/06/15 03:57:57;;;;;;;4.77;3.93;;;15.30;97.70;;;14.38;69.90;97339.69;5090932;28;20414;-75
2022/06/15 04:00:26;;;;;;;5.30;3.90;;;15.30;98.00;;;14.41;70.12;97344.53;5089933;28;20882;-75
2022/06/15 04:02:53;;;;;;;8.90;4.00;;;15.30;98.40;;;14.45;69.98;97349.00;5090776;28;20402;-76
2022/06/15 04:05:23;;;;;;;5.67;3.83;;;15.30;98.40;;;14.50;69.98;97349.00;5090687;28;20390;-76
2022/06/15 04:10:35;;;;;;;6.68;3.90;;;15.40;98.70;;;14.56;70.07;97349.75;5090332;28;20435;-75
2022/06/15 04:13:03;;;;;;;6.80;3.65;;;15.40;98.70;;;14.58;70.35;97344.94;5090602;28;20402;-75
2022/06/15 04:15:29;;;;;;;5.15;3.60;;;15.50;99.10;;;14.59;70.05;97352.63;5090232;28;20903;-75
2022/06/15 04:17:56;;;;;;;7.38;4.00;;;15.50;98.90;;;14.61;70.12;97357.69;5090498;28;20438;-75
2022/06/15 04:20:31;;;;;;;7.13;4.00;;;15.50;99.20;;;14.64;69.81;97355.28;5089607;28;20398;-74
2022/06/15 04:22:57;;;;;;;6.32;3.55;;;15.50;98.50;;;14.65;70.19;97362.22;5090251;28;20741;-74
2022/06/15 04:25:24;;;;;;;5.03;3.67;;;15.50;99.10;;;14.69;70.26;97355.25;5090078;28;20432;-77
2022/06/15 04:27:50;;;;;;;6.00;3.72;;;15.60;99.70;;;14.73;70.46;97361.59;5090322;28;20767;-75
2022/06/15 04:30:17;;;;;;;6.75;3.80;;;15.60;99.90;;;14.80;70.62;97369.28;5088991;28;20400;-76
2022/06/15 04:32:43;;;;;;;6.10;3.88;;;15.60;99.90;;;14.87;70.14;97364.44;5090375;28;20489;-75
2022/06/15 04:35:09;;;;;;;6.95;3.60;;;15.70;99.90;;;14.93;70.45;97373.97;5089848;28;20781;-76
2022/06/15 04:37:37;;;;;;;4.93;3.50;;;15.70;99.90;;;14.99;70.08;97369.41;5090420;28;20398;-76
2022/06/15 04:40:05;;;;;;;5.70;3.47;;;15.80;99.90;;;15.06;69.96;97369.88;5089550;28;20926;-75
2022/06/15 04:42:31;;;;;;;4.67;3.63;;;15.90;99.40;;;15.11;70.45;97378.63;5090114;28;20886;-75
2022/06/15 04:44:57;;;;;;;6.80;4.15;;;15.90;99.90;;;15.18;70.55;97375.66;5090060;28;20398;-75
2022/06/15 04:47:24;;;;;;;5.93;4.07;;;16.00;99.90;;;15.26;69.67;97372.34;5090167;28;20429;-75
2022/06/15 04:49:50;;;;;;;5.65;4.00;;;16.10;99.40;;;15.32;69.51;97368.56;5089637;28;20402;-75
2022/06/15 04:52:16;;;;;;;5.43;3.70;;;16.10;99.50;;;15.39;70.33;97374.38;5089852;28;20763;-76
2022/06/15 04:54:42;;;;;;;8.13;4.05;;;16.20;99.90;;;15.48;70.06;97377.22;5089865;28;20815;-76
2022/06/15 04:57:08;;;;;;;8.05;3.65;;;16.30;99.90;;;15.57;69.42;97378.22;5090151;28;20390;-76
2022/06/15 04:59:34;;;;;;;6.10;3.80;;;16.30;99.50;;;15.68;67.42;97377.03;5089215;28;21009;-75
2022/06/15 05:02:00;;;;;;;8.73;4.25;;;16.40;97.30;;;15.82;63.69;97379.81;5089707;28;20786;-75
2022/06/15 05:04:28;;;;;;;5.50;3.38;;;16.60;92.40;;;15.91;64.84;97386.13;5089820;28;20406;-76
2022/06/15 05:06:54;;;;;;;5.22;3.47;;;16.70;93.60;;;16.00;65.81;97378.28;5089887;28;20822;-76
2022/06/15 05:09:20;;;;;;;6.75;3.50;;;16.70;94.70;;;16.07;64.87;97374.19;5089300;28;20406;-76
2022/06/15 05:11:46;;;;;;;7.03;3.72;;;16.80;93.30;;;16.16;64.98;97380.44;5089711;28;20485;-76
2022/06/15 05:14:12;;;;;;;6.15;3.58;;;16.90;93.60;;;16.22;65.67;97374.00;5089663;28;20455;-75
2022/06/15 05:16:39;;;;;;;5.38;3.15;;;17.00;94.40;;;16.29;66.30;97380.84;5089644;28;20398;-76
2022/06/15 05:19:05;;;;;;;6.53;3.50;;;17.00;94.90;;;16.33;66.47;97371.97;5089244;28;21057;-76
2022/06/15 05:21:38;;;;;;;7.38;4.20;;;17.10;95.20;;;16.38;67.35;97377.25;5089547;28;20834;-75
2022/06/15 05:24:05;;;;;;;4.95;3.40;;;17.10;96.00;;;16.41;66.77;97382.00;5089827;28;20398;-76
2022/06/15 05:26:31;;;;;;;4.32;3.10;;;17.10;95.80;;;16.45;66.75;97388.38;5091229;28;20489;-76
2022/06/15 05:28:57;;;;;;;4.85;3.35;;;17.20;95.70;;;16.47;67.02;97383.50;5089061;28;20953;-76
2022/06/15 05:31:23;;;;;;;5.00;3.60;;;17.20;95.90;;;16.52;66.80;97383.47;5089604;28;20455;-76
2022/06/15 05:33:55;;;;;;;7.53;3.60;;;17.30;95.60;;;16.57;67.01;97383.38;5089733;28;20401;-75
2022/06/15 05:36:25;;;;;;;7.78;3.85;;;17.30;95.90;;;16.62;67.13;97379.88;5102805;22;20907;-77
2022/06/15 05:38:52;;;;;;;5.57;3.20;;;17.30;96.20;;;16.66;67.27;97380.88;5105060;28;20398;-77
2022/06/15 05:41:18;;;;;;;5.43;3.58;;;17.40;96.30;;;16.70;67.38;97379.22;5091046;28;20435;-77
2022/06/15 05:43:46;;;;;;;5.53;3.20;;;17.40;96.50;;;16.73;67.55;97377.84;5093784;28;20398;-77
2022/06/15 05:46:24;;;;;;;4.97;3.20;;;17.40;96.60;;;16.75;67.73;97375.69;5093626;28;20455;-77
2022/06/15 05:48:51;;;;;;;6.10;3.67;;;17.40;96.80;;;16.76;67.26;97377.28;5093137;28;20441;-78
2022/06/15 05:51:17;;;;;;;4.95;3.05;;;17.50;96.50;;;16.80;65.32;97375.59;5085834;28;20394;-78
2022/06/15 05:53:42;;;;;;;6.97;3.60;;;17.50;94.60;;;16.86;64.55;97371.75;5085682;28;20405;-79
2022/06/15 05:56:10;;;;;;;5.68;3.60;;;17.50;93.20;;;16.93;65.49;97369.50;5092013;28;20508;-78
2022/06/15 05:58:36;;;;;;;4.57;3.07;;;17.60;93.90;;;16.97;65.69;97370.53;5092653;28;20476;-78
2022/06/15 06:01:16;;;;;;;6.70;3.13;;;17.70;94.30;;;16.99;66.13;97363.78;5092221;28;20398;-79
2022/06/15 06:03:42;;;;;;;4.82;2.95;;;17.70;94.80;;;17.01;66.45;97369.63;5093431;28;20692;-77
2022/06/15 06:06:10;;;;;;;9.23;3.53;;;17.70;95.10;;;17.06;62.77;97365.31;5091503;28;20566;-77
2022/06/15 06:08:36;;;;;;;5.70;3.17;;;17.70;91.50;;;17.11;61.90;97366.00;5079016;28;20513;-78
2022/06/15 06:11:02;;;;;;;6.25;3.50;;;17.80;90.70;;;17.18;61.88;97366.41;5083881;28;20398;-77
2022/06/15 06:13:30;;;;;;;7.60;3.40;;;17.80;90.20;;;17.23;61.14;97365.53;5093020;28;20527;-80
2022/06/15 06:15:56;;;;;;;8.67;4.07;;;17.90;88.70;;;17.28;59.38;97368.13;5092764;28;20414;-79
2022/06/15 06:18:22;;;;;;;4.05;2.95;;;18.00;85.30;;;17.34;60.52;97367.75;5091464;28;20422;-77
2022/06/15 06:20:48;;;;;;;6.45;3.05;;;18.00;86.80;;;17.40;62.16;97363.09;5084109;28;20756;-77
2022/06/15 06:23:14;;;;;;;8.57;3.60;;;18.10;89.90;;;17.44;61.20;97368.66;5092663;28;20458;-77
2022/06/15 06:25:41;;;;;;;4.97;3.40;;;18.10;89.10;;;17.48;61.50;97367.75;5083973;28;20946;-77
2022/06/15 06:28:11;;;;;;;6.65;2.88;;;18.20;88.70;;;17.55;62.66;97370.03;5092343;28;20402;-77
2022/06/15 06:30:39;;;;;;;5.40;3.05;;;18.20;90.40;;;17.59;63.61;97366.47;5090229;28;20402;-77
2022/06/15 06:33:05;;;;;;;4.50;3.03;;;18.30;91.30;;;17.62;64.28;97371.28;5081018;28;20411;-76
2022/06/15 06:35:30;;;;;;;7.20;3.40;;;18.30;92.00;;;17.64;63.81;97368.31;5083351;28;20414;-80
2022/06/15 06:37:57;;;;;;;6.68;3.20;;;18.30;91.70;;;17.67;63.62;97371.16;5092492;28;20418;-78
2022/06/15 06:40:23;;;;;;;5.57;3.03;;;18.40;91.50;;;17.73;63.92;97374.56;5094106;28;20755;-78
2022/06/15 06:42:48;;;;;;;8.98;3.35;;;18.40;91.90;;;17.74;61.99;97371.56;5096260;28;20402;-78
2022/06/15 06:45:15;;;;;;;5.53;3.17;;;18.40;90.00;;;17.80;60.53;97374.97;5098328;28;20416;-78
2022/06/15 06:47:44;;;;;;;4.95;3.20;;;18.40;86.80;;;17.89;59.45;97377.75;5094101;28;20454;-79
2022/06/15 06:50:10;;;;;;;7.28;3.60;;;18.50;84.60;;;17.96;59.42;97372.78;5087924;28;20494;-79
2022/06/15 06:52:36;;;;;;;6.70;3.30;;;18.60;84.40;;;18.01;57.14;97381.50;5079377;28;20492;-79
2022/06/15 06:55:03;;;;;;;7.97;3.40;;;18.70;80.60;;;18.07;56.25;97376.81;5084860;28;20506;-79
2022/06/15 06:57:29;;;;;;;4.53;3.00;;;18.70;79.30;;;18.16;57.69;97378.50;5086053;28;20773;-79
2022/06/15 06:59:55;;;;;;;5.47;3.00;;;18.80;81.00;;;18.21;59.04;97374.91;5085630;28;20405;-80
2022/06/15 07:02:21;;;;;;;6.32;3.00;;;18.90;83.10;;;18.25;59.97;97380.50;5084876;28;20411;-80
2022/06/15 07:04:48;;;;;;;5.82;2.95;;;18.90;84.30;;;18.28;60.33;97375.31;5091721;28;20386;-79
2022/06/15 07:07:14;;;;;;;4.97;2.83;;;18.90;84.50;;;18.29;60.62;97376.91;5078774;28;20902;-80
2022/06/15 07:09:40;;;;;;;5.30;2.83;;;18.90;85.80;;;18.30;59.75;97372.34;5083924;28;20409;-78
2022/06/15 07:12:07;;;;;;;6.00;2.65;;;18.90;84.00;;;18.34;57.59;97373.34;5082534;28;20405;-78
2022/06/15 07:14:33;;;;;;;8.70;3.05;;;19.00;80.70;;;18.39;58.71;97376.69;5083018;28;20871;-79
2022/06/15 07:16:59;;;;;;;4.75;2.78;;;19.00;81.80;;;18.45;59.70;97372.00;5082534;28;20418;-80
2022/06/15 07:19:25;;;;;;;6.57;2.80;;;19.10;83.70;;;18.48;59.06;97382.94;5087546;28;20660;-80
2022/06/15 07:21:52;;;;;;;5.82;2.80;;;19.10;82.80;;;18.52;59.48;97378.53;5081630;28;20402;-76
2022/06/15 07:24:18;;;;;;;6.47;3.08;;;19.10;83.70;;;18.54;57.54;97373.66;5079232;28;20422;-75
2022/06/15 07:26:47;;;;;;;7.38;3.13;;;19.20;80.00;;;18.61;56.38;97373.28;5071441;28;20874;-80
2022/06/15 07:29:21;;;;;;;3.90;2.55;;;19.20;78.20;;;18.70;58.36;97376.03;5083054;28;20432;-81
2022/06/15 07:31:51;;;;;;;5.90;3.13;;;19.30;80.90;;;18.74;57.44;97364.38;5082922;28;20813;-76
2022/06/15 07:34:18;;;;;;;5.47;2.90;;;19.40;79.80;;;18.80;57.48;97370.41;5084052;28;20915;-75
2022/06/15 07:36:46;;;;;;;5.22;2.95;;;19.40;79.50;;;18.85;58.51;97384.53;5078910;28;20442;-76
2022/06/15 07:39:17;;;;;;;5.10;2.90;;;19.50;81.30;;;18.89;59.71;97379.31;5078620;28;20435;-76
2022/06/15 07:41:44;;;;;;;3.30;2.50;;;19.50;83.00;;;18.93;60.31;97383.00;5079498;28;20400;-76
2022/06/15 07:44:10;;;;;;;3.17;2.50;;;19.50;84.40;;;18.94;60.13;97380.00;5081981;28;20406;-76
2022/06/15 07:46:36;;;;;;;4.05;2.60;;;19.50;84.20;;;18.99;60.72;97379.09;5073105;28;20401;-75
2022/06/15 07:51:53;;;;;;;4.40;2.75;;;19.60;86.40;;;19.08;60.58;97376.47;5079926;28;20390;-75
2022/06/15 07:54:22;;;;;;;5.55;2.75;;;19.70;85.50;;;19.15;60.88;97382.19;5080263;28;20396;-75
2022/06/15 07:56:50;;;;;;;6.93;3.42;;;19.70;85.90;;;19.18;60.13;97386.94;5080332;28;20582;-76
2022/06/15 07:59:16;;;;;;;5.63;2.72;;;19.80;84.30;;;19.23;58.80;97387.63;5080418;28;20410;-75
2022/06/15 08:01:43;;;;;;;5.38;2.65;;;19.80;82.10;;;19.31;58.99;97386.09;5078864;28;20394;-76
2022/06/15 08:04:13;;;;;;;8.27;3.25;;;19.90;82.50;;;19.35;57.90;97381.69;5076577;28;20411;-75
2022/06/15 08:06:42;;;;;;;4.70;2.70;;;19.90;81.00;;;19.44;59.05;97384.41;5077487;28;20489;-76
2022/06/15 08:09:09;;;;;;;3.13;2.50;;;20.00;82.70;;;19.53;60.01;97390.66;5080048;28;20394;-77
2022/06/15 08:11:36;;;;;;;4.07;2.60;;;20.10;84.30;;;19.58;60.44;97394.00;5089230;28;20433;-77
2022/06/15 08:14:03;;;;;;;6.13;2.90;;;20.20;85.10;;;19.65;60.03;97393.56;5088044;28;20402;-78
2022/06/15 08:16:29;;;;;;;4.67;2.80;;;20.20;84.50;;;19.73;60.13;97389.31;5090168;28;20413;-77
2022/06/15 08:19:00;;;;;;;4.32;2.63;;;20.30;84.80;;;19.80;60.24;97387.78;5089355;28;20394;-77
2022/06/15 08:21:30;;;;;;;6.22;3.17;;;20.40;85.20;;;19.85;58.68;97384.94;5090105;28;20398;-78
2022/06/15 08:23:59;;;;;;;3.33;2.53;;;20.40;81.90;;;19.96;59.20;97380.09;5090654;28;20413;-77
2022/06/15 08:26:30;;;;;;;7.05;2.90;;;20.50;82.90;;;20.06;58.33;97385.97;5077693;28;20407;-78
2022/06/15 08:29:02;;;;;;;8.75;2.88;;;20.60;82.10;;;20.16;58.28;97390.25;5079273;28;20398;-77
2022/06/15 08:31:28;;;;;;;4.47;2.75;;;20.70;82.10;;;20.24;57.11;97386.00;5090975;28;20688;-77
2022/06/15 08:33:54;;;;;;;5.43;2.90;;;20.80;79.50;;;20.32;56.72;97380.66;5089310;28;20822;-78
2022/06/15 08:36:21;;;;;;;4.83;2.80;;;20.90;78.70;;;20.43;55.79;97392.72;5089611;28;20509;-80
2022/06/15 08:38:53;;;;;;;3.85;2.50;;;20.90;77.30;;;20.53;56.90;97382.75;5076012;28;20427;-80
2022/06/15 08:41:45;;;;;;;4.97;2.67;;;21.00;78.60;;;20.63;56.64;97388.63;5083404;28;20910;-78
2022/06/15 08:44:26;;;;;;;6.38;2.67;;;21.10;78.30;;;20.70;54.72;97390.84;5085194;28;20429;-79
2022/06/15 08:47:04;;;;;;;9.43;3.30;;;21.20;75.50;;;20.68;51.88;97380.41;5079134;28;20834;-78
2022/06/15 08:49:49;;;;;;;5.30;2.83;;;21.20;70.70;;;20.84;53.82;97388.78;5088664;28;20402;-79
2022/06/15 08:52:18;;;;;;;6.37;2.93;;;21.30;73.30;;;20.94;54.88;97390.38;5081574;28;20440;-82
2022/06/15 08:54:57;;;;;;;4.13;2.72;;;21.40;74.80;;;21.06;55.73;97390.50;5080443;28;20422;-76
2022/06/15 08:57:33;;;;;;;5.50;2.70;;;21.50;77.10;;;21.15;55.99;97392.09;5078676;28;20402;-75
2022/06/15 09:00:09;;;;;;;5.43;3.08;;;21.60;76.40;;;21.26;55.25;97392.59;5075635;28;20431;-78
2022/06/15 09:02:41;;;;;;;4.45;2.50;;;21.70;75.70;;;21.36;54.80;97391.44;5079246;28;20404;-76
2022/06/15 09:05:19;;;;;;;4.47;2.50;;;21.80;74.80;;;21.46;55.69;97391.13;5077700;28;20477;-77
2022/06/15 09:08:10;;;;;;;4.85;2.70;;;21.90;75.90;;;21.58;55.84;97394.72;5074163;28;20398;-77
2022/06/15 09:10:49;;;;;;;6.80;3.22;;;22.00;76.20;;;21.69;55.75;97397.88;5079391;28;20471;-77
2022/06/15 09:13:43;;;;;;;4.55;2.60;;;22.10;75.80;;;21.83;56.21;97393.06;5080876;28;20677;-78
2022/06/15 09:16:22;;;;;;;5.38;2.80;;;22.30;77.10;;;21.93;54.62;97386.53;5082907;28;20418;-79
2022/06/15 09:18:54;;;;;;;4.37;2.90;;;22.30;74.60;;;21.98;52.26;97389.84;5083817;28;20925;-79
2022/06/15 09:21:29;;;;;;;5.05;2.58;;;22.40;71.20;;;22.08;53.48;97396.78;5079040;28;20403;-79
2022/06/15 09:24:01;;;;;;;4.47;2.70;;;22.50;72.70;;;22.19;53.93;97389.88;5080256;28;20880;-79
2022/06/15 09:26:34;;;;;;;3.47;2.50;;;22.60;73.50;;;22.32;54.95;97396.19;5087169;28;20413;-79
2022/06/15 09:29:07;;;;;;;4.95;2.53;;;22.70;74.50;;;22.43;55.04;97402.75;5086658;28;20402;-79
2022/06/15 09:31:42;;;;;;;5.25;2.47;;;22.80;75.10;;;22.49;53.35;97403.34;5085200;28;20398;-79
2022/06/15 09:34:16;;;;;;;6.57;2.85;;;22.90;72.60;;;22.51;50.09;97396.53;5085004;28;20771;-80
2022/06/15 09:36:46;;;;;;;5.00;2.40;;;22.90;67.60;;;22.63;51.11;97395.81;5093269;28;20462;-79
2022/06/15 09:39:13;;;;;;;4.82;2.65;;;23.00;69.00;;;22.72;51.82;97399.22;5075071;28;20477;-80
2022/06/15 09:41:47;;;;;;;4.83;2.37;;;23.10;70.10;;;22.82;52.17;97400.78;5078407;28;20955;-79
2022/06/15 09:44:25;;;;;;;4.63;2.50;;;23.20;70.30;;;22.93;52.73;97394.63;5086961;28;20503;-77
2022/06/15 09:47:03;;;;;;;6.55;2.63;;;23.30;71.20;;;22.90;48.13;97389.13;5082918;28;20418;-79
2022/06/15 09:49:42;;;;;;;5.72;2.90;;;23.30;64.40;;;22.97;47.91;97395.56;5083201;28;20433;-79
2022/06/15 09:52:23;;;;;;;6.43;2.80;;;23.40;64.50;;;22.96;47.62;97396.69;5084133;28;20775;-80
2022/06/15 09:55:06;;;;;;;4.15;2.80;;;23.40;63.60;;;23.06;49.17;97393.59;5082920;28;20478;-79
2022/06/15 09:57:32;;;;;;;5.50;3.00;;;23.40;65.60;;;23.16;49.88;97400.47;5075504;28;20400;-79
2022/06/15 10:00:02;;;;;;;3.38;2.35;;;23.50;66.30;;;23.30;50.28;97390.19;5084925;28;20781;-79
2022/06/15 10:02:34;;;;;;;4.28;2.53;;;23.70;67.40;;;23.40;48.24;97388.94;5071668;28;20461;-80
2022/06/15 10:05:05;;;;;;;4.22;2.42;;;23.80;64.80;;;23.47;48.41;97391.91;5071178;28;20773;-79
2022/06/15 10:07:37;;;;;;;7.03;2.72;;;23.80;64.40;;;23.48;46.23;97393.50;5072843;28;20387;-77
2022/06/15 10:10:18;;;;;;;4.75;2.53;;;23.90;61.00;;;23.68;47.79;97398.03;5072173;28;20765;-77
2022/06/15 10:13:02;;;;;;;2.92;1.88;;;24.00;63.70;;;23.80;48.60;97389.97;5072908;28;20402;-77
2022/06/15 10:15:48;;;;;;;3.72;2.05;;;24.20;64.70;;;23.98;49.16;97395.19;5072500;28;20418;-78
2022/06/15 10:18:21;;;;;;;6.03;2.38;;;24.30;65.50;;;24.05;47.68;97390.78;5072158;28;20960;-78
2022/06/15 10:21:05;;;;;;;3.63;2.42;;;24.40;63.30;;;24.19;47.83;97387.72;5072148;28;20856;-77
2022/06/15 10:23:42;;;;;;;6.30;2.67;;;24.50;63.50;;;24.25;44.92;97383.69;5072647;28;20761;-77
2022/06/15 10:26:22;;;;;;;4.65;2.40;;;24.60;59.50;;;24.39;43.87;97386.84;5072477;28;20414;-77
2022/06/15 10:28:48;;;;;;;3.07;2.03;;;24.70;58.60;;;24.62;43.81;97389.84;5072135;28;20400;-77
2022/06/15 10:31:23;;;;;;;4.70;2.07;;;24.80;58.60;;;25.04;44.75;97390.28;5071499;28;20404;-79
2022/06/15 10:33:51;;;;;;;6.05;2.10;;;25.20;59.80;;;25.79;44.01;97391.16;5073047;28;20995;-78
2022/06/15 10:36:25;;;;;;;3.05;2.20;;;26.00;59.50;;;26.83;42.94;97394.34;5072829;28;20656;-79
2022/06/15 10:39:00;;;;;;;5.20;2.30;;;27.10;58.40;;;28.24;40.75;97388.03;5071109;28;20487;-79